sensor_id;sensor_type;location;lat;lon;timestamp;temperature;humidity
16305;DHT22;8261;47.678;-122.174;2022-09-09T00:00:21;24.50;99.90
16305;DHT22;8261;47.678;-122.174;2022-09-09T00:02:58;24.30;99.90
16305;DHT22;8261;47.678;-122.174;2022-09-09T00:05:37;24.00;99.90
16305;DHT22;8261;47.678;-122.174;2022-09-09T00:08:19;23.70;99.90
16305;DHT22;8261;47.678;-122.174;2022-09-09T00:10:57;23.40;99.90
16305;DHT22;8261;47.678;-122.174;2022-09-09T00:13:33;23.00;99.90
16305;DHT22;8261;47.678;-122.174;2022-09-09T00:16:11;22.80;99.90
16305;DHT22;8261;47.678;-122.174;2022-09-09T00:18:53;22.60;99.90
16305;DHT22;8261;47.678;-122.174;2022-09-09T00:21:32;22.40;99.90
16305;DHT22;8261;47.678;-122.174;2022-09-09T00:24:11;22.30;99.90
16305;DHT22;8261;47.678;-122.174;2022-09-09T00:26:47;22.20;99.90
16305;DHT22;8261;47.678;-122.174;2022-09-09T00:29:24;22.10;99.90
16305;DHT22;8261;47.678;-122.174;2022-09-09T00:32:08;22.00;99.90
16305;DHT22;8261;47.678;-122.174;2022-09-09T00:34:49;21.90;99.90
16305;DHT22;8261;47.678;-122.174;2022-09-09T00:37:24;21.80;99.90
16305;DHT22;8261;47.678;-122.174;2022-09-09T00:40:02;21.70;99.90
16305;DHT22;8261;47.678;-122.174;2022-09-09T00:42:42;21.60;99.90
16305;DHT22;8261;47.678;-122.174;2022-09-09T00:45:27;21.40;99.90
16305;DHT22;8261;47.678;-122.174;2022-09-09T00:48:05;21.40;99.90
16305;DHT22;8261;47.678;-122.174;2022-09-09T00:50:47;21.40;99.90
16305;DHT22;8261;47.678;-122.174;2022-09-09T00:53:30;21.40;99.90
16305;DHT22;8261;47.678;-122.174;2022-09-09T00:56:13;21.40;99.90
16305;DHT22;8261;47.678;-122.174;2022-09-09T00:58:57;21.30;99.90
16305;DHT22;8261;47.678;-122.174;2022-09-09T01:01:31;21.40;99.90
16305;DHT22;8261;47.678;-122.174;2022-09-09T01:04:07;21.40;99.90
16305;DHT22;8261;47.678;-122.174;2022-09-09T01:06:41;21.40;99.90
16305;DHT22;8261;47.678;-122.174;2022-09-09T01:09:18;21.40;99.90
16305;DHT22;8261;47.678;-122.174;2022-09-09T01:11:59;21.50;99.90
16305;DHT22;8261;47.678;-122.174;2022-09-09T01:14:41;21.40;99.90
16305;DHT22;8261;47.678;-122.174;2022-09-09T01:17:17;21.30;99.90
16305;DHT22;8261;47.678;-122.174;2022-09-09T01:20:04;21.40;99.90
16305;DHT22;8261;47.678;-122.174;2022-09-09T01:22:43;21.40;99.90
16305;DHT22;8261;47.678;-122.174;2022-09-09T01:25:28;21.40;99.90
16305;DHT22;8261;47.678;-122.174;2022-09-09T01:28:07;21.10;99.90
16305;DHT22;8261;47.678;-122.174;2022-09-09T01:30:42;21.00;99.90
16305;DHT22;8261;47.678;-122.174;2022-09-09T01:33:15;21.10;99.90
16305;DHT22;8261;47.678;-122.174;2022-09-09T01:35:50;20.90;99.90
16305;DHT22;8261;47.678;-122.174;2022-09-09T01:38:24;20.90;99.90
16305;DHT22;8261;47.678;-122.174;2022-09-09T01:40:56;20.80;99.90
16305;DHT22;8261;47.678;-122.174;2022-09-09T01:43:29;20.70;99.90
16305;DHT22;8261;47.678;-122.174;2022-09-09T01:46:01;20.60;99.90
16305;DHT22;8261;47.678;-122.174;2022-09-09T01:48:33;20.60;99.90
16305;DHT22;8261;47.678;-122.174;2022-09-09T01:51:05;20.50;99.90
16305;DHT22;8261;47.678;-122.174;2022-09-09T01:53:36;20.40;99.90
16305;DHT22;8261;47.678;-122.174;2022-09-09T01:56:16;20.30;99.90
16305;DHT22;8261;47.678;-122.174;2022-09-09T01:59:10;20.20;99.90
16305;DHT22;8261;47.678;-122.174;2022-09-09T02:01:53;20.20;99.90
16305;DHT22;8261;47.678;-122.174;2022-09-09T02:04:39;20.00;99.90
16305;DHT22;8261;47.678;-122.174;2022-09-09T02:07:35;19.80;99.90
16305;DHT22;8261;47.678;-122.174;2022-09-09T02:10:30;19.70;99.90
16305;DHT22;8261;47.678;-122.174;2022-09-09T02:13:07;19.60;99.90
16305;DHT22;8261;47.678;-122.174;2022-09-09T02:15:55;19.50;99.90
16305;DHT22;8261;47.678;-122.174;2022-09-09T02:18:29;19.30;99.90
16305;DHT22;8261;47.678;-122.174;2022-09-09T02:21:03;19.20;99.90
16305;DHT22;8261;47.678;-122.174;2022-09-09T02:23:35;19.20;99.90
16305;DHT22;8261;47.678;-122.174;2022-09-09T02:26:11;19.10;99.90
16305;DHT22;8261;47.678;-122.174;2022-09-09T02:29:02;19.00;99.90
16305;DHT22;8261;47.678;-122.174;2022-09-09T02:31:42;18.90;99.90
16305;DHT22;8261;47.678;-122.174;2022-09-09T02:34:17;18.70;99.90
16305;DHT22;8261;47.678;-122.174;2022-09-09T02:36:54;18.60;99.90
16305;DHT22;8261;47.678;-122.174;2022-09-09T02:39:40;18.50;99.90
16305;DHT22;8261;47.678;-122.174;2022-09-09T02:42:13;18.40;99.90
16305;DHT22;8261;47.678;-122.174;2022-09-09T02:44:49;18.30;99.90
16305;DHT22;8261;47.678;-122.174;2022-09-09T02:47:35;18.30;99.90
16305;DHT22;8261;47.678;-122.174;2022-09-09T02:50:29;18.20;99.90
16305;DHT22;8261;47.678;-122.174;2022-09-09T02:53:10;18.20;99.90
16305;DHT22;8261;47.678;-122.174;2022-09-09T02:55:48;18.10;99.90
16305;DHT22;8261;47.678;-122.174;2022-09-09T02:58:23;18.00;99.90
16305;DHT22;8261;47.678;-122.174;2022-09-09T03:00:55;17.90;99.90
16305;DHT22;8261;47.678;-122.174;2022-09-09T03:03:42;17.80;99.90
16305;DHT22;8261;47.678;-122.174;2022-09-09T03:06:21;17.70;99.90
16305;DHT22;8261;47.678;-122.174;2022-09-09T03:08:54;17.70;99.90
16305;DHT22;8261;47.678;-122.174;2022-09-09T03:11:49;17.60;99.90
16305;DHT22;8261;47.678;-122.174;2022-09-09T03:14:46;17.50;99.90
16305;DHT22;8261;47.678;-122.174;2022-09-09T03:17:37;17.40;99.90
16305;DHT22;8261;47.678;-122.174;2022-09-09T03:20:17;17.30;99.90
16305;DHT22;8261;47.678;-122.174;2022-09-09T03:22:49;17.30;99.90
16305;DHT22;8261;47.678;-122.174;2022-09-09T03:25:21;17.20;99.90
16305;DHT22;8261;47.678;-122.174;2022-09-09T03:27:54;17.10;99.90
16305;DHT22;8261;47.678;-122.174;2022-09-09T03:30:27;17.00;99.90
16305;DHT22;8261;47.678;-122.174;2022-09-09T03:32:59;17.00;99.90
16305;DHT22;8261;47.678;-122.174;2022-09-09T03:35:33;16.90;99.90
16305;DHT22;8261;47.678;-122.174;2022-09-09T03:38:04;16.90;99.90
16305;DHT22;8261;47.678;-122.174;2022-09-09T03:40:35;16.90;99.90
16305;DHT22;8261;47.678;-122.174;2022-09-09T03:43:08;16.80;99.90
16305;DHT22;8261;47.678;-122.174;2022-09-09T03:45:41;16.70;99.90
16305;DHT22;8261;47.678;-122.174;2022-09-09T03:48:13;16.60;99.90
16305;DHT22;8261;47.678;-122.174;2022-09-09T03:50:48;16.60;99.90
16305;DHT22;8261;47.678;-122.174;2022-09-09T03:53:24;16.50;99.90
16305;DHT22;8261;47.678;-122.174;2022-09-09T03:55:57;16.50;99.90
16305;DHT22;8261;47.678;-122.174;2022-09-09T03:58:31;16.50;99.90
16305;DHT22;8261;47.678;-122.174;2022-09-09T04:01:19;16.40;99.90
16305;DHT22;8261;47.678;-122.174;2022-09-09T04:03:51;16.40;99.90
16305;DHT22;8261;47.678;-122.174;2022-09-09T04:06:26;16.40;99.90
16305;DHT22;8261;47.678;-122.174;2022-09-09T04:08:59;16.30;99.90
16305;DHT22;8261;47.678;-122.174;2022-09-09T04:11:48;16.40;99.90
16305;DHT22;8261;47.678;-122.174;2022-09-09T04:14:20;16.30;99.90
16305;DHT22;8261;47.678;-122.174;2022-09-09T04:16:52;16.20;99.90
16305;DHT22;8261;47.678;-122.174;2022-09-09T04:19:48;16.20;99.90
16305;DHT22;8261;47.678;-122.174;2022-09-09T04:22:21;16.20;99.90
16305;DHT22;8261;47.678;-122.174;2022-09-09T04:24:52;16.20;99.90
16305;DHT22;8261;47.678;-122.174;2022-09-09T04:27:24;16.10;99.90
16305;DHT22;8261;47.678;-122.174;2022-09-09T04:29:55;16.10;99.90
16305;DHT22;8261;47.678;-122.174;2022-09-09T04:32:26;16.00;99.90
16305;DHT22;8261;47.678;-122.174;2022-09-09T04:34:57;16.00;99.90
16305;DHT22;8261;47.678;-122.174;2022-09-09T04:37:32;16.00;99.90
16305;DHT22;8261;47.678;-122.174;2022-09-09T04:40:04;16.00;99.90
16305;DHT22;8261;47.678;-122.174;2022-09-09T04:42:38;15.90;99.90
16305;DHT22;8261;47.678;-122.174;2022-09-09T04:45:12;15.90;99.90
16305;DHT22;8261;47.678;-122.174;2022-09-09T04:47:44;15.80;99.90
16305;DHT22;8261;47.678;-122.174;2022-09-09T04:50:16;15.70;99.90
16305;DHT22;8261;47.678;-122.174;2022-09-09T04:52:49;15.70;99.90
16305;DHT22;8261;47.678;-122.174;2022-09-09T04:55:20;15.70;99.90
16305;DHT22;8261;47.678;-122.174;2022-09-09T04:57:52;15.60;99.90
16305;DHT22;8261;47.678;-122.174;2022-09-09T05:00:23;15.50;99.90
16305;DHT22;8261;47.678;-122.174;2022-09-09T05:02:54;15.50;99.90
16305;DHT22;8261;47.678;-122.174;2022-09-09T05:05:27;15.50;99.90
16305;DHT22;8261;47.678;-122.174;2022-09-09T05:08:04;15.50;99.90
16305;DHT22;8261;47.678;-122.174;2022-09-09T05:10:37;15.50;99.90
16305;DHT22;8261;47.678;-122.174;2022-09-09T05:13:15;15.40;99.90
16305;DHT22;8261;47.678;-122.174;2022-09-09T05:15:57;15.30;99.90
16305;DHT22;8261;47.678;-122.174;2022-09-09T05:18:28;15.20;99.90
16305;DHT22;8261;47.678;-122.174;2022-09-09T05:21:00;15.20;99.90
16305;DHT22;8261;47.678;-122.174;2022-09-09T05:23:54;15.10;99.90
16305;DHT22;8261;47.678;-122.174;2022-09-09T05:26:26;15.10;99.90
16305;DHT22;8261;47.678;-122.174;2022-09-09T05:28:59;15.00;99.90
16305;DHT22;8261;47.678;-122.174;2022-09-09T05:31:39;14.90;99.90
16305;DHT22;8261;47.678;-122.174;2022-09-09T05:34:12;14.90;99.90
16305;DHT22;8261;47.678;-122.174;2022-09-09T05:36:44;14.80;99.90
16305;DHT22;8261;47.678;-122.174;2022-09-09T05:42:00;14.70;99.90
16305;DHT22;8261;47.678;-122.174;2022-09-09T05:44:44;14.70;99.90
16305;DHT22;8261;47.678;-122.174;2022-09-09T05:47:15;14.70;99.90
16305;DHT22;8261;47.678;-122.174;2022-09-09T05:49:47;14.70;99.90
16305;DHT22;8261;47.678;-122.174;2022-09-09T05:52:18;14.60;99.90
16305;DHT22;8261;47.678;-122.174;2022-09-09T05:54:49;14.60;99.90
16305;DHT22;8261;47.678;-122.174;2022-09-09T05:57:23;14.60;99.90
16305;DHT22;8261;47.678;-122.174;2022-09-09T05:59:55;14.50;99.90
16305;DHT22;8261;47.678;-122.174;2022-09-09T06:02:27;14.50;99.90
16305;DHT22;8261;47.678;-122.174;2022-09-09T06:04:59;14.50;99.90
16305;DHT22;8261;47.678;-122.174;2022-09-09T06:07:30;14.50;99.90
16305;DHT22;8261;47.678;-122.174;2022-09-09T06:10:24;14.50;99.90
16305;DHT22;8261;47.678;-122.174;2022-09-09T06:13:04;14.50;99.90
16305;DHT22;8261;47.678;-122.174;2022-09-09T06:15:52;14.60;99.90
16305;DHT22;8261;47.678;-122.174;2022-09-09T06:18:23;14.60;99.90
16305;DHT22;8261;47.678;-122.174;2022-09-09T06:20:58;14.60;99.90
16305;DHT22;8261;47.678;-122.174;2022-09-09T06:23:33;14.60;99.90
16305;DHT22;8261;47.678;-122.174;2022-09-09T06:26:06;14.60;99.90
16305;DHT22;8261;47.678;-122.174;2022-09-09T06:28:41;14.60;99.90
16305;DHT22;8261;47.678;-122.174;2022-09-09T06:31:14;14.50;99.90
16305;DHT22;8261;47.678;-122.174;2022-09-09T06:33:46;14.50;99.90
16305;DHT22;8261;47.678;-122.174;2022-09-09T06:36:19;14.40;99.90
16305;DHT22;8261;47.678;-122.174;2022-09-09T06:38:51;14.40;99.90
16305;DHT22;8261;47.678;-122.174;2022-09-09T06:41:24;14.30;99.90
16305;DHT22;8261;47.678;-122.174;2022-09-09T06:43:58;14.30;99.90
16305;DHT22;8261;47.678;-122.174;2022-09-09T06:46:30;14.30;99.90
16305;DHT22;8261;47.678;-122.174;2022-09-09T06:49:02;14.20;99.90
16305;DHT22;8261;47.678;-122.174;2022-09-09T06:51:36;14.20;99.90
16305;DHT22;8261;47.678;-122.174;2022-09-09T06:54:11;14.20;99.90
16305;DHT22;8261;47.678;-122.174;2022-09-09T06:56:43;14.30;99.90
16305;DHT22;8261;47.678;-122.174;2022-09-09T06:59:17;14.30;99.90
16305;DHT22;8261;47.678;-122.174;2022-09-09T07:01:49;14.30;99.90
16305;DHT22;8261;47.678;-122.174;2022-09-09T07:04:23;14.40;99.90
16305;DHT22;8261;47.678;-122.174;2022-09-09T07:06:54;14.40;99.90
16305;DHT22;8261;47.678;-122.174;2022-09-09T07:09:26;14.40;99.90
16305;DHT22;8261;47.678;-122.174;2022-09-09T07:12:01;14.40;99.90
16305;DHT22;8261;47.678;-122.174;2022-09-09T07:14:36;14.50;99.90
16305;DHT22;8261;47.678;-122.174;2022-09-09T07:17:07;14.50;99.90
16305;DHT22;8261;47.678;-122.174;2022-09-09T07:19:39;14.50;99.90
16305;DHT22;8261;47.678;-122.174;2022-09-09T07:22:10;14.50;99.90
16305;DHT22;8261;47.678;-122.174;2022-09-09T07:24:42;14.50;99.90
16305;DHT22;8261;47.678;-122.174;2022-09-09T07:27:13;14.50;99.90
16305;DHT22;8261;47.678;-122.174;2022-09-09T07:29:47;14.40;99.90
16305;DHT22;8261;47.678;-122.174;2022-09-09T07:32:21;14.40;99.90
16305;DHT22;8261;47.678;-122.174;2022-09-09T07:34:52;14.40;99.90
16305;DHT22;8261;47.678;-122.174;2022-09-09T07:37:23;14.30;99.90
16305;DHT22;8261;47.678;-122.174;2022-09-09T07:39:55;14.30;99.90
16305;DHT22;8261;47.678;-122.174;2022-09-09T07:42:27;14.30;99.90
16305;DHT22;8261;47.678;-122.174;2022-09-09T07:45:01;14.30;99.90
16305;DHT22;8261;47.678;-122.174;2022-09-09T07:47:33;14.20;99.90
16305;DHT22;8261;47.678;-122.174;2022-09-09T07:50:05;14.10;99.90
16305;DHT22;8261;47.678;-122.174;2022-09-09T07:52:39;14.00;99.90
16305;DHT22;8261;47.678;-122.174;2022-09-09T07:55:10;14.00;99.90
16305;DHT22;8261;47.678;-122.174;2022-09-09T07:57:42;14.00;99.90
16305;DHT22;8261;47.678;-122.174;2022-09-09T08:00:22;14.00;99.90
16305;DHT22;8261;47.678;-122.174;2022-09-09T08:02:55;13.90;99.90
16305;DHT22;8261;47.678;-122.174;2022-09-09T08:05:27;13.90;99.90
16305;DHT22;8261;47.678;-122.174;2022-09-09T08:07:59;13.80;99.90
16305;DHT22;8261;47.678;-122.174;2022-09-09T08:10:32;13.80;99.90
16305;DHT22;8261;47.678;-122.174;2022-09-09T08:13:04;13.70;99.90
16305;DHT22;8261;47.678;-122.174;2022-09-09T08:15:47;13.70;99.90
16305;DHT22;8261;47.678;-122.174;2022-09-09T08:18:19;13.70;99.90
16305;DHT22;8261;47.678;-122.174;2022-09-09T08:20:51;13.70;99.90
16305;DHT22;8261;47.678;-122.174;2022-09-09T08:23:23;13.70;99.90
16305;DHT22;8261;47.678;-122.174;2022-09-09T08:25:55;13.70;99.90
16305;DHT22;8261;47.678;-122.174;2022-09-09T08:28:33;13.70;99.90
16305;DHT22;8261;47.678;-122.174;2022-09-09T08:31:11;13.70;99.90
16305;DHT22;8261;47.678;-122.174;2022-09-09T08:33:44;13.70;99.90
16305;DHT22;8261;47.678;-122.174;2022-09-09T08:36:30;13.70;99.90
16305;DHT22;8261;47.678;-122.174;2022-09-09T08:39:02;13.60;99.90
16305;DHT22;8261;47.678;-122.174;2022-09-09T08:45:09;13.40;99.90
16305;DHT22;8261;47.678;-122.174;2022-09-09T08:47:52;13.30;99.90
16305;DHT22;8261;47.678;-122.174;2022-09-09T08:50:27;13.30;99.90
16305;DHT22;8261;47.678;-122.174;2022-09-09T08:53:02;13.20;99.90
16305;DHT22;8261;47.678;-122.174;2022-09-09T08:55:39;13.20;99.90
16305;DHT22;8261;47.678;-122.174;2022-09-09T08:58:14;13.20;99.90
16305;DHT22;8261;47.678;-122.174;2022-09-09T09:01:00;13.20;99.90
16305;DHT22;8261;47.678;-122.174;2022-09-09T09:03:43;13.20;99.90
16305;DHT22;8261;47.678;-122.174;2022-09-09T09:06:28;13.20;99.90
16305;DHT22;8261;47.678;-122.174;2022-09-09T09:09:08;13.20;99.90
16305;DHT22;8261;47.678;-122.174;2022-09-09T09:11:45;13.00;99.90
16305;DHT22;8261;47.678;-122.174;2022-09-09T09:14:22;13.10;99.90
16305;DHT22;8261;47.678;-122.174;2022-09-09T09:16:56;13.10;99.90
16305;DHT22;8261;47.678;-122.174;2022-09-09T09:19:31;13.10;99.90
16305;DHT22;8261;47.678;-122.174;2022-09-09T09:22:13;13.10;99.90
16305;DHT22;8261;47.678;-122.174;2022-09-09T09:24:52;13.10;99.90
16305;DHT22;8261;47.678;-122.174;2022-09-09T09:27:31;13.00;99.90
16305;DHT22;8261;47.678;-122.174;2022-09-09T09:30:14;12.90;99.90
16305;DHT22;8261;47.678;-122.174;2022-09-09T09:32:58;12.90;99.90
16305;DHT22;8261;47.678;-122.174;2022-09-09T09:38:17;12.80;99.90
16305;DHT22;8261;47.678;-122.174;2022-09-09T09:41:08;12.70;99.90
16305;DHT22;8261;47.678;-122.174;2022-09-09T09:43:41;12.70;99.90
16305;DHT22;8261;47.678;-122.174;2022-09-09T09:46:20;12.60;99.90
16305;DHT22;8261;47.678;-122.174;2022-09-09T09:49:03;12.60;99.90
16305;DHT22;8261;47.678;-122.174;2022-09-09T09:51:35;12.50;99.90
16305;DHT22;8261;47.678;-122.174;2022-09-09T09:54:17;12.50;99.90
16305;DHT22;8261;47.678;-122.174;2022-09-09T09:56:49;12.50;99.90
16305;DHT22;8261;47.678;-122.174;2022-09-09T09:59:22;12.40;99.90
16305;DHT22;8261;47.678;-122.174;2022-09-09T10:02:17;12.30;99.90
16305;DHT22;8261;47.678;-122.174;2022-09-09T10:04:49;12.30;99.90
16305;DHT22;8261;47.678;-122.174;2022-09-09T10:07:31;12.20;99.90
16305;DHT22;8261;47.678;-122.174;2022-09-09T10:10:10;12.30;99.90
16305;DHT22;8261;47.678;-122.174;2022-09-09T10:12:51;12.20;99.90
16305;DHT22;8261;47.678;-122.174;2022-09-09T10:15:34;12.20;99.90
16305;DHT22;8261;47.678;-122.174;2022-09-09T10:18:24;12.20;99.90
16305;DHT22;8261;47.678;-122.174;2022-09-09T10:21:06;12.10;99.90
16305;DHT22;8261;47.678;-122.174;2022-09-09T10:23:52;12.10;99.90
16305;DHT22;8261;47.678;-122.174;2022-09-09T10:26:39;12.10;99.90
16305;DHT22;8261;47.678;-122.174;2022-09-09T10:29:26;12.10;99.90
16305;DHT22;8261;47.678;-122.174;2022-09-09T10:32:11;12.10;99.90
16305;DHT22;8261;47.678;-122.174;2022-09-09T10:34:56;12.10;99.90
16305;DHT22;8261;47.678;-122.174;2022-09-09T10:37:41;12.10;99.90
16305;DHT22;8261;47.678;-122.174;2022-09-09T10:40:27;12.10;99.90
16305;DHT22;8261;47.678;-122.174;2022-09-09T10:43:16;12.10;99.90
16305;DHT22;8261;47.678;-122.174;2022-09-09T10:45:56;12.10;99.90
16305;DHT22;8261;47.678;-122.174;2022-09-09T10:48:53;12.10;99.90
16305;DHT22;8261;47.678;-122.174;2022-09-09T10:51:36;12.10;99.90
16305;DHT22;8261;47.678;-122.174;2022-09-09T10:54:28;12.00;99.90
16305;DHT22;8261;47.678;-122.174;2022-09-09T10:57:05;12.00;99.90
16305;DHT22;8261;47.678;-122.174;2022-09-09T10:59:45;12.00;99.90
16305;DHT22;8261;47.678;-122.174;2022-09-09T11:02:22;12.00;99.90
16305;DHT22;8261;47.678;-122.174;2022-09-09T11:05:00;11.90;99.90
16305;DHT22;8261;47.678;-122.174;2022-09-09T11:07:37;11.90;99.90
16305;DHT22;8261;47.678;-122.174;2022-09-09T11:10:20;11.90;99.90
16305;DHT22;8261;47.678;-122.174;2022-09-09T11:12:57;11.90;99.90
16305;DHT22;8261;47.678;-122.174;2022-09-09T11:15:39;12.00;99.90
16305;DHT22;8261;47.678;-122.174;2022-09-09T11:18:15;12.00;99.90
16305;DHT22;8261;47.678;-122.174;2022-09-09T11:20:53;12.00;99.90
16305;DHT22;8261;47.678;-122.174;2022-09-09T11:23:30;12.00;99.90
16305;DHT22;8261;47.678;-122.174;2022-09-09T11:26:12;12.00;99.90
16305;DHT22;8261;47.678;-122.174;2022-09-09T11:28:56;12.00;99.90
16305;DHT22;8261;47.678;-122.174;2022-09-09T11:31:44;12.10;99.90
16305;DHT22;8261;47.678;-122.174;2022-09-09T11:34:38;12.00;99.90
16305;DHT22;8261;47.678;-122.174;2022-09-09T11:40:23;12.00;99.90
16305;DHT22;8261;47.678;-122.174;2022-09-09T11:43:05;12.00;99.90
16305;DHT22;8261;47.678;-122.174;2022-09-09T11:45:42;12.00;99.90
16305;DHT22;8261;47.678;-122.174;2022-09-09T11:48:28;12.00;99.90
16305;DHT22;8261;47.678;-122.174;2022-09-09T11:51:03;11.90;99.90
16305;DHT22;8261;47.678;-122.174;2022-09-09T11:53:52;11.90;99.90
16305;DHT22;8261;47.678;-122.174;2022-09-09T11:56:30;11.90;99.90
16305;DHT22;8261;47.678;-122.174;2022-09-09T11:59:04;11.90;99.90
16305;DHT22;8261;47.678;-122.174;2022-09-09T12:01:39;11.90;99.90
16305;DHT22;8261;47.678;-122.174;2022-09-09T12:04:35;11.90;99.90
16305;DHT22;8261;47.678;-122.174;2022-09-09T12:07:32;11.90;99.90
16305;DHT22;8261;47.678;-122.174;2022-09-09T12:10:20;11.90;99.90
16305;DHT22;8261;47.678;-122.174;2022-09-09T12:12:53;11.90;99.90
16305;DHT22;8261;47.678;-122.174;2022-09-09T12:15:28;11.90;99.90
16305;DHT22;8261;47.678;-122.174;2022-09-09T12:18:00;11.90;99.90
16305;DHT22;8261;47.678;-122.174;2022-09-09T12:20:35;11.90;99.90
16305;DHT22;8261;47.678;-122.174;2022-09-09T12:23:19;11.90;99.90
16305;DHT22;8261;47.678;-122.174;2022-09-09T12:26:04;11.80;99.90
16305;DHT22;8261;47.678;-122.174;2022-09-09T12:28:49;11.80;99.90
16305;DHT22;8261;47.678;-122.174;2022-09-09T12:31:26;11.80;99.90
16305;DHT22;8261;47.678;-122.174;2022-09-09T12:34:10;11.90;99.90
16305;DHT22;8261;47.678;-122.174;2022-09-09T12:36:47;11.80;99.90
16305;DHT22;8261;47.678;-122.174;2022-09-09T12:39:31;11.90;99.90
16305;DHT22;8261;47.678;-122.174;2022-09-09T12:42:04;11.80;99.90
16305;DHT22;8261;47.678;-122.174;2022-09-09T12:44:36;11.80;99.90
16305;DHT22;8261;47.678;-122.174;2022-09-09T12:47:11;11.80;99.90
16305;DHT22;8261;47.678;-122.174;2022-09-09T12:49:44;11.80;99.90
16305;DHT22;8261;47.678;-122.174;2022-09-09T12:52:26;11.80;99.90
16305;DHT22;8261;47.678;-122.174;2022-09-09T12:55:00;11.70;99.90
16305;DHT22;8261;47.678;-122.174;2022-09-09T12:57:35;11.70;99.90
16305;DHT22;8261;47.678;-122.174;2022-09-09T13:00:12;11.70;99.90
16305;DHT22;8261;47.678;-122.174;2022-09-09T13:02:49;11.70;99.90
16305;DHT22;8261;47.678;-122.174;2022-09-09T13:05:25;11.70;99.90
16305;DHT22;8261;47.678;-122.174;2022-09-09T13:08:04;11.70;99.90
16305;DHT22;8261;47.678;-122.174;2022-09-09T13:10:37;11.70;99.90
16305;DHT22;8261;47.678;-122.174;2022-09-09T13:13:34;11.70;99.90
16305;DHT22;8261;47.678;-122.174;2022-09-09T13:16:18;11.60;99.90
16305;DHT22;8261;47.678;-122.174;2022-09-09T13:18:51;11.60;99.90
16305;DHT22;8261;47.678;-122.174;2022-09-09T13:21:35;11.60;99.90
16305;DHT22;8261;47.678;-122.174;2022-09-09T13:24:27;11.60;99.90
16305;DHT22;8261;47.678;-122.174;2022-09-09T13:27:01;11.60;99.90
16305;DHT22;8261;47.678;-122.174;2022-09-09T13:29:33;11.60;99.90
16305;DHT22;8261;47.678;-122.174;2022-09-09T13:32:12;11.60;99.90
16305;DHT22;8261;47.678;-122.174;2022-09-09T13:34:51;11.60;99.90
16305;DHT22;8261;47.678;-122.174;2022-09-09T13:37:31;11.60;99.90
16305;DHT22;8261;47.678;-122.174;2022-09-09T13:40:15;11.50;99.90
16305;DHT22;8261;47.678;-122.174;2022-09-09T13:42:53;11.50;99.90
16305;DHT22;8261;47.678;-122.174;2022-09-09T13:45:27;11.50;99.90
16305;DHT22;8261;47.678;-122.174;2022-09-09T13:48:09;11.50;99.90
16305;DHT22;8261;47.678;-122.174;2022-09-09T13:50:43;11.50;99.90
16305;DHT22;8261;47.678;-122.174;2022-09-09T13:53:24;11.50;99.90
16305;DHT22;8261;47.678;-122.174;2022-09-09T13:55:57;11.50;99.90
16305;DHT22;8261;47.678;-122.174;2022-09-09T13:58:30;11.50;99.90
16305;DHT22;8261;47.678;-122.174;2022-09-09T14:01:01;11.50;99.90
16305;DHT22;8261;47.678;-122.174;2022-09-09T14:03:33;11.50;99.90
16305;DHT22;8261;47.678;-122.174;2022-09-09T14:06:04;11.50;99.90
16305;DHT22;8261;47.678;-122.174;2022-09-09T14:08:35;11.50;99.90
16305;DHT22;8261;47.678;-122.174;2022-09-09T14:11:29;11.60;99.90
16305;DHT22;8261;47.678;-122.174;2022-09-09T14:14:10;11.60;99.90
16305;DHT22;8261;47.678;-122.174;2022-09-09T14:16:42;11.60;99.90
16305;DHT22;8261;47.678;-122.174;2022-09-09T14:19:15;11.60;99.90
16305;DHT22;8261;47.678;-122.174;2022-09-09T14:22:00;11.70;99.90
16305;DHT22;8261;47.678;-122.174;2022-09-09T14:24:45;11.70;99.90
16305;DHT22;8261;47.678;-122.174;2022-09-09T14:27:44;11.70;99.90
16305;DHT22;8261;47.678;-122.174;2022-09-09T14:30:32;11.70;99.90
16305;DHT22;8261;47.678;-122.174;2022-09-09T14:33:46;11.80;99.90
16305;DHT22;8261;47.678;-122.174;2022-09-09T14:36:30;11.80;99.90
16305;DHT22;8261;47.678;-122.174;2022-09-09T14:41:51;12.00;99.90
16305;DHT22;8261;47.678;-122.174;2022-09-09T14:44:27;12.00;99.90
16305;DHT22;8261;47.678;-122.174;2022-09-09T14:47:12;12.00;99.90
16305;DHT22;8261;47.678;-122.174;2022-09-09T14:49:47;12.10;99.90
16305;DHT22;8261;47.678;-122.174;2022-09-09T14:52:19;12.20;99.90
16305;DHT22;8261;47.678;-122.174;2022-09-09T14:54:57;12.20;99.90
16305;DHT22;8261;47.678;-122.174;2022-09-09T14:57:49;12.30;99.90
16305;DHT22;8261;47.678;-122.174;2022-09-09T15:00:27;12.30;99.90
16305;DHT22;8261;47.678;-122.174;2022-09-09T15:02:58;12.40;99.90
16305;DHT22;8261;47.678;-122.174;2022-09-09T15:05:30;12.50;99.90
16305;DHT22;8261;47.678;-122.174;2022-09-09T15:08:28;12.50;99.90
16305;DHT22;8261;47.678;-122.174;2022-09-09T15:11:10;12.60;99.90
16305;DHT22;8261;47.678;-122.174;2022-09-09T15:14:09;12.60;99.90
16305;DHT22;8261;47.678;-122.174;2022-09-09T15:20:06;12.80;99.90
16305;DHT22;8261;47.678;-122.174;2022-09-09T15:22:38;12.80;99.90
16305;DHT22;8261;47.678;-122.174;2022-09-09T15:25:12;12.90;99.90
16305;DHT22;8261;47.678;-122.174;2022-09-09T15:27:43;13.00;99.90
16305;DHT22;8261;47.678;-122.174;2022-09-09T15:30:14;13.10;99.90
16305;DHT22;8261;47.678;-122.174;2022-09-09T15:32:45;13.10;99.90
16305;DHT22;8261;47.678;-122.174;2022-09-09T15:35:19;13.20;99.90
16305;DHT22;8261;47.678;-122.174;2022-09-09T15:37:51;13.20;99.90
16305;DHT22;8261;47.678;-122.174;2022-09-09T15:40:22;13.30;99.90
16305;DHT22;8261;47.678;-122.174;2022-09-09T15:42:54;13.30;99.90
16305;DHT22;8261;47.678;-122.174;2022-09-09T15:45:26;13.40;99.90
16305;DHT22;8261;47.678;-122.174;2022-09-09T15:48:03;13.60;99.90
16305;DHT22;8261;47.678;-122.174;2022-09-09T15:51:12;13.70;99.90
16305;DHT22;8261;47.678;-122.174;2022-09-09T15:54:09;13.70;99.90
16305;DHT22;8261;47.678;-122.174;2022-09-09T15:56:45;13.90;99.90
16305;DHT22;8261;47.678;-122.174;2022-09-09T15:59:19;13.90;99.90
16305;DHT22;8261;47.678;-122.174;2022-09-09T16:01:53;14.00;99.90
16305;DHT22;8261;47.678;-122.174;2022-09-09T16:04:50;14.10;99.90
16305;DHT22;8261;47.678;-122.174;2022-09-09T16:07:29;14.20;99.90
16305;DHT22;8261;47.678;-122.174;2022-09-09T16:10:17;14.20;99.90
16305;DHT22;8261;47.678;-122.174;2022-09-09T16:12:50;14.30;99.90
16305;DHT22;8261;47.678;-122.174;2022-09-09T16:15:21;14.40;99.90
16305;DHT22;8261;47.678;-122.174;2022-09-09T16:18:00;14.40;99.90
16305;DHT22;8261;47.678;-122.174;2022-09-09T16:20:32;14.50;99.90
16305;DHT22;8261;47.678;-122.174;2022-09-09T16:23:06;14.60;99.90
16305;DHT22;8261;47.678;-122.174;2022-09-09T16:25:37;14.60;99.90